sensor_id;sensor_type;location;lat;lon;timestamp;P1;durP1;ratioP1;P2;durP2;ratioP2
57826;SDS011;43656;57.746;11.780;2023-04-21T00:00:18;2.78;;;0.82;;
57826;SDS011;43656;57.746;11.780;2023-04-21T00:02:44;2.03;;;0.90;;
57826;SDS011;43656;57.746;11.780;2023-04-21T00:05:11;3.45;;;1.08;;
57826;SDS011;43656;57.746;11.780;2023-04-21T00:07:38;2.63;;;0.98;;
57826;SDS011;43656;57.746;11.780;2023-04-21T00:10:06;1.70;;;1.10;;
57826;SDS011;43656;57.746;11.780;2023-04-21T00:12:33;1.83;;;1.00;;
57826;SDS011;43656;57.746;11.780;2023-04-21T00:14:58;3.65;;;1.00;;
57826;SDS011;43656;57.746;11.780;2023-04-21T00:17:24;3.25;;;1.00;;
57826;SDS011;43656;57.746;11.780;2023-04-21T00:19:50;3.85;;;1.00;;
57826;SDS011;43656;57.746;11.780;2023-04-21T00:22:15;2.63;;;0.90;;
57826;SDS011;43656;57.746;11.780;2023-04-21T00:24:41;1.83;;;1.10;;
57826;SDS011;43656;57.746;11.780;2023-04-21T00:27:07;4.28;;;1.05;;
57826;SDS011;43656;57.746;11.780;2023-04-21T00:29:32;4.13;;;1.10;;
57826;SDS011;43656;57.746;11.780;2023-04-21T00:31:57;4.65;;;1.20;;
57826;SDS011;43656;57.746;11.780;2023-04-21T00:34:23;4.32;;;1.00;;
57826;SDS011;43656;57.746;11.780;2023-04-21T00:36:49;3.58;;;0.90;;
57826;SDS011;43656;57.746;11.780;2023-04-21T00:39:14;2.08;;;0.90;;
57826;SDS011;43656;57.746;11.780;2023-04-21T00:41:40;5.65;;;1.10;;
57826;SDS011;43656;57.746;11.780;2023-04-21T00:44:07;2.50;;;1.10;;
57826;SDS011;43656;57.746;11.780;2023-04-21T00:46:34;3.58;;;1.10;;
57826;SDS011;43656;57.746;11.780;2023-04-21T00:49:00;2.20;;;1.38;;
57826;SDS011;43656;57.746;11.780;2023-04-21T00:51:28;3.08;;;1.38;;
57826;SDS011;43656;57.746;11.780;2023-04-21T00:53:57;5.95;;;1.10;;
57826;SDS011;43656;57.746;11.780;2023-04-21T00:56:24;2.88;;;1.00;;
57826;SDS011;43656;57.746;11.780;2023-04-21T00:58:50;5.93;;;1.10;;
57826;SDS011;43656;57.746;11.780;2023-04-21T01:01:17;3.67;;;1.10;;
57826;SDS011;43656;57.746;11.780;2023-04-21T01:03:43;3.17;;;1.00;;
57826;SDS011;43656;57.746;11.780;2023-04-21T01:06:09;2.22;;;1.20;;
57826;SDS011;43656;57.746;11.780;2023-04-21T01:08:34;2.47;;;1.10;;
57826;SDS011;43656;57.746;11.780;2023-04-21T01:11:07;2.22;;;1.10;;
57826;SDS011;43656;57.746;11.780;2023-04-21T01:13:34;3.90;;;0.98;;
57826;SDS011;43656;57.746;11.780;2023-04-21T01:16:00;3.08;;;1.05;;
57826;SDS011;43656;57.746;11.780;2023-04-21T01:18:25;4.57;;;1.27;;
57826;SDS011;43656;57.746;11.780;2023-04-21T01:20:51;3.22;;;1.00;;
57826;SDS011;43656;57.746;11.780;2023-04-21T01:23:16;3.90;;;1.25;;
57826;SDS011;43656;57.746;11.780;2023-04-21T01:25:42;3.88;;;1.20;;
57826;SDS011;43656;57.746;11.780;2023-04-21T01:28:08;5.22;;;1.50;;
57826;SDS011;43656;57.746;11.780;2023-04-21T01:30:33;2.50;;;1.38;;
57826;SDS011;43656;57.746;11.780;2023-04-21T01:32:59;4.15;;;1.10;;
57826;SDS011;43656;57.746;11.780;2023-04-21T01:35:24;2.75;;;1.20;;
57826;SDS011;43656;57.746;11.780;2023-04-21T01:37:50;6.60;;;1.50;;
57826;SDS011;43656;57.746;11.780;2023-04-21T01:40:15;4.68;;;1.17;;
57826;SDS011;43656;57.746;11.780;2023-04-21T01:42:41;3.78;;;1.33;;
57826;SDS011;43656;57.746;11.780;2023-04-21T01:45:07;5.07;;;1.40;;
57826;SDS011;43656;57.746;11.780;2023-04-21T01:47:35;5.95;;;1.23;;
57826;SDS011;43656;57.746;11.780;2023-04-21T01:50:00;2.92;;;1.15;;
57826;SDS011;43656;57.746;11.780;2023-04-21T01:52:26;3.25;;;1.10;;
57826;SDS011;43656;57.746;11.780;2023-04-21T01:54:51;2.88;;;1.45;;
57826;SDS011;43656;57.746;11.780;2023-04-21T01:57:17;4.45;;;1.30;;
57826;SDS011;43656;57.746;11.780;2023-04-21T01:59:44;3.90;;;1.38;;
57826;SDS011;43656;57.746;11.780;2023-04-21T02:02:09;4.35;;;1.45;;
57826;SDS011;43656;57.746;11.780;2023-04-21T02:04:35;4.35;;;1.15;;
57826;SDS011;43656;57.746;11.780;2023-04-21T02:07:00;3.58;;;1.30;;
57826;SDS011;43656;57.746;11.780;2023-04-21T02:09:26;2.85;;;1.30;;
57826;SDS011;43656;57.746;11.780;2023-04-21T02:11:51;3.95;;;1.23;;
57826;SDS011;43656;57.746;11.780;2023-04-21T02:14:17;2.20;;;1.00;;
57826;SDS011;43656;57.746;11.780;2023-04-21T02:16:42;2.83;;;1.20;;
57826;SDS011;43656;57.746;11.780;2023-04-21T02:19:08;2.45;;;1.23;;
57826;SDS011;43656;57.746;11.780;2023-04-21T02:21:33;3.58;;;1.40;;
57826;SDS011;43656;57.746;11.780;2023-04-21T02:23:59;2.78;;;1.10;;
57826;SDS011;43656;57.746;11.780;2023-04-21T02:26:24;2.03;;;1.30;;
57826;SDS011;43656;57.746;11.780;2023-04-21T02:28:49;3.80;;;1.20;;
57826;SDS011;43656;57.746;11.780;2023-04-21T02:31:15;2.38;;;1.30;;
57826;SDS011;43656;57.746;11.780;2023-04-21T02:33:41;2.03;;;1.30;;
57826;SDS011;43656;57.746;11.780;2023-04-21T02:36:07;3.63;;;1.25;;
57826;SDS011;43656;57.746;11.780;2023-04-21T02:38:32;4.05;;;1.42;;
57826;SDS011;43656;57.746;11.780;2023-04-21T02:40:58;2.40;;;1.30;;
57826;SDS011;43656;57.746;11.780;2023-04-21T02:43:23;4.85;;;1.20;;
57826;SDS011;43656;57.746;11.780;2023-04-21T02:45:49;5.38;;;1.63;;
57826;SDS011;43656;57.746;11.780;2023-04-21T02:48:15;2.22;;;1.27;;
57826;SDS011;43656;57.746;11.780;2023-04-21T02:50:44;4.45;;;1.40;;
57826;SDS011;43656;57.746;11.780;2023-04-21T02:53:10;7.68;;;1.30;;
57826;SDS011;43656;57.746;11.780;2023-04-21T02:55:35;7.57;;;1.23;;
57826;SDS011;43656;57.746;11.780;2023-04-21T02:58:00;3.00;;;1.02;;
57826;SDS011;43656;57.746;11.780;2023-04-21T03:00:26;5.32;;;1.40;;
57826;SDS011;43656;57.746;11.780;2023-04-21T03:02:51;7.43;;;1.50;;
57826;SDS011;43656;57.746;11.780;2023-04-21T03:05:17;5.88;;;1.50;;
57826;SDS011;43656;57.746;11.780;2023-04-21T03:07:45;1.60;;;1.20;;
57826;SDS011;43656;57.746;11.780;2023-04-21T03:10:11;5.13;;;1.45;;
57826;SDS011;43656;57.746;11.780;2023-04-21T03:12:36;4.03;;;1.73;;
57826;SDS011;43656;57.746;11.780;2023-04-21T03:15:02;3.08;;;1.80;;
57826;SDS011;43656;57.746;11.780;2023-04-21T03:17:28;3.35;;;1.60;;
57826;SDS011;43656;57.746;11.780;2023-04-21T03:19:53;7.05;;;1.98;;
57826;SDS011;43656;57.746;11.780;2023-04-21T03:22:20;4.22;;;1.58;;
57826;SDS011;43656;57.746;11.780;2023-04-21T03:24:45;6.25;;;1.55;;
57826;SDS011;43656;57.746;11.780;2023-04-21T03:27:10;2.67;;;1.60;;
57826;SDS011;43656;57.746;11.780;2023-04-21T03:29:36;3.00;;;2.00;;
57826;SDS011;43656;57.746;11.780;2023-04-21T03:32:01;4.10;;;1.63;;
57826;SDS011;43656;57.746;11.780;2023-04-21T03:34:27;5.35;;;1.55;;
57826;SDS011;43656;57.746;11.780;2023-04-21T03:36:53;7.05;;;1.70;;
57826;SDS011;43656;57.746;11.780;2023-04-21T03:39:19;4.72;;;1.90;;
57826;SDS011;43656;57.746;11.780;2023-04-21T03:41:45;4.15;;;1.80;;
57826;SDS011;43656;57.746;11.780;2023-04-21T03:44:11;4.93;;;1.80;;
57826;SDS011;43656;57.746;11.780;2023-04-21T03:46:36;8.02;;;2.00;;
57826;SDS011;43656;57.746;11.780;2023-04-21T03:49:01;3.78;;;1.60;;
57826;SDS011;43656;57.746;11.780;2023-04-21T03:51:27;2.88;;;1.73;;
57826;SDS011;43656;57.746;11.780;2023-04-21T03:53:53;6.32;;;1.73;;
57826;SDS011;43656;57.746;11.780;2023-04-21T03:56:18;3.60;;;1.85;;
57826;SDS011;43656;57.746;11.780;2023-04-21T03:58:44;3.92;;;1.80;;
57826;SDS011;43656;57.746;11.780;2023-04-21T04:01:10;7.15;;;2.20;;
57826;SDS011;43656;57.746;11.780;2023-04-21T04:03:35;6.75;;;2.13;;
57826;SDS011;43656;57.746;11.780;2023-04-21T04:06:00;4.82;;;1.70;;
57826;SDS011;43656;57.746;11.780;2023-04-21T04:08:28;6.63;;;1.88;;
57826;SDS011;43656;57.746;11.780;2023-04-21T04:10:53;5.70;;;1.58;;
57826;SDS011;43656;57.746;11.780;2023-04-21T04:13:19;3.25;;;1.52;;
57826;SDS011;43656;57.746;11.780;2023-04-21T04:15:46;6.85;;;1.90;;
57826;SDS011;43656;57.746;11.780;2023-04-21T04:18:12;5.15;;;1.80;;
57826;SDS011;43656;57.746;11.780;2023-04-21T04:20:37;5.22;;;1.80;;
57826;SDS011;43656;57.746;11.780;2023-04-21T04:23:03;6.13;;;1.80;;
57826;SDS011;43656;57.746;11.780;2023-04-21T04:25:28;7.20;;;1.92;;
57826;SDS011;43656;57.746;11.780;2023-04-21T04:27:55;5.22;;;1.70;;
57826;SDS011;43656;57.746;11.780;2023-04-21T04:30:21;11.25;;;1.88;;
57826;SDS011;43656;57.746;11.780;2023-04-21T04:32:48;4.70;;;1.90;;
57826;SDS011;43656;57.746;11.780;2023-04-21T04:35:13;7.57;;;1.95;;
57826;SDS011;43656;57.746;11.780;2023-04-21T04:37:40;3.10;;;1.75;;
57826;SDS011;43656;57.746;11.780;2023-04-21T04:40:06;6.90;;;1.80;;
57826;SDS011;43656;57.746;11.780;2023-04-21T04:42:36;4.18;;;2.30;;
57826;SDS011;43656;57.746;11.780;2023-04-21T04:45:03;12.20;;;2.40;;
57826;SDS011;43656;57.746;11.780;2023-04-21T04:47:30;5.95;;;2.00;;
57826;SDS011;43656;57.746;11.780;2023-04-21T04:49:55;4.80;;;2.10;;
57826;SDS011;43656;57.746;11.780;2023-04-21T04:52:21;7.45;;;2.42;;
57826;SDS011;43656;57.746;11.780;2023-04-21T04:54:46;8.93;;;2.10;;
57826;SDS011;43656;57.746;11.780;2023-04-21T04:57:11;6.40;;;2.20;;
57826;SDS011;43656;57.746;11.780;2023-04-21T04:59:37;3.90;;;2.10;;
57826;SDS011;43656;57.746;11.780;2023-04-21T05:02:02;5.32;;;1.85;;
57826;SDS011;43656;57.746;11.780;2023-04-21T05:04:28;6.50;;;2.00;;
57826;SDS011;43656;57.746;11.780;2023-04-21T05:06:53;8.50;;;2.10;;
57826;SDS011;43656;57.746;11.780;2023-04-21T05:09:19;6.20;;;1.85;;
57826;SDS011;43656;57.746;11.780;2023-04-21T05:11:44;7.60;;;2.10;;
57826;SDS011;43656;57.746;11.780;2023-04-21T05:14:10;5.15;;;1.92;;
57826;SDS011;43656;57.746;11.780;2023-04-21T05:16:35;7.03;;;2.30;;
57826;SDS011;43656;57.746;11.780;2023-04-21T05:19:01;6.65;;;2.05;;
57826;SDS011;43656;57.746;11.780;2023-04-21T05:21:27;7.35;;;1.98;;
57826;SDS011;43656;57.746;11.780;2023-04-21T05:23:54;6.65;;;1.98;;
57826;SDS011;43656;57.746;11.780;2023-04-21T05:26:20;7.10;;;2.13;;
57826;SDS011;43656;57.746;11.780;2023-04-21T05:28:46;9.98;;;2.33;;
57826;SDS011;43656;57.746;11.780;2023-04-21T05:31:12;7.57;;;2.20;;
57826;SDS011;43656;57.746;11.780;2023-04-21T05:33:37;8.98;;;2.28;;
57826;SDS011;43656;57.746;11.780;2023-04-21T05:36:06;4.78;;;2.10;;
57826;SDS011;43656;57.746;11.780;2023-04-21T05:38:36;7.47;;;2.45;;
57826;SDS011;43656;57.746;11.780;2023-04-21T05:41:02;6.82;;;2.10;;
57826;SDS011;43656;57.746;11.780;2023-04-21T05:43:28;14.02;;;2.60;;
57826;SDS011;43656;57.746;11.780;2023-04-21T05:46:13;6.53;;;2.40;;
57826;SDS011;43656;57.746;11.780;2023-04-21T05:48:39;13.00;;;2.60;;
57826;SDS011;43656;57.746;11.780;2023-04-21T05:51:08;10.70;;;2.60;;
57826;SDS011;43656;57.746;11.780;2023-04-21T05:53:35;8.75;;;2.45;;
57826;SDS011;43656;57.746;11.780;2023-04-21T05:56:01;12.57;;;2.53;;
57826;SDS011;43656;57.746;11.780;2023-04-21T05:58:27;13.00;;;2.53;;
57826;SDS011;43656;57.746;11.780;2023-04-21T06:00:52;12.25;;;2.75;;
57826;SDS011;43656;57.746;11.780;2023-04-21T06:03:18;10.20;;;2.97;;
57826;SDS011;43656;57.746;11.780;2023-04-21T06:05:43;6.63;;;2.35;;
57826;SDS011;43656;57.746;11.780;2023-04-21T06:08:09;11.27;;;2.65;;
57826;SDS011;43656;57.746;11.780;2023-04-21T06:10:34;11.25;;;2.72;;
57826;SDS011;43656;57.746;11.780;2023-04-21T06:13:00;16.90;;;2.97;;
57826;SDS011;43656;57.746;11.780;2023-04-21T06:15:25;16.52;;;3.38;;
57826;SDS011;43656;57.746;11.780;2023-04-21T06:17:54;13.95;;;3.45;;
57826;SDS011;43656;57.746;11.780;2023-04-21T06:20:19;18.45;;;2.80;;
57826;SDS011;43656;57.746;11.780;2023-04-21T06:22:45;23.38;;;4.30;;
57826;SDS011;43656;57.746;11.780;2023-04-21T06:25:10;21.30;;;3.63;;
57826;SDS011;43656;57.746;11.780;2023-04-21T06:27:36;13.68;;;3.33;;
57826;SDS011;43656;57.746;11.780;2023-04-21T06:30:01;18.88;;;3.40;;
57826;SDS011;43656;57.746;11.780;2023-04-21T06:32:27;17.92;;;3.10;;
57826;SDS011;43656;57.746;11.780;2023-04-21T06:34:52;14.95;;;3.38;;
57826;SDS011;43656;57.746;11.780;2023-04-21T06:37:18;12.60;;;3.17;;
57826;SDS011;43656;57.746;11.780;2023-04-21T06:39:43;11.70;;;2.83;;
57826;SDS011;43656;57.746;11.780;2023-04-21T06:42:09;14.52;;;2.85;;
57826;SDS011;43656;57.746;11.780;2023-04-21T06:44:34;17.83;;;3.40;;
57826;SDS011;43656;57.746;11.780;2023-04-21T06:47:02;11.25;;;2.55;;
57826;SDS011;43656;57.746;11.780;2023-04-21T06:49:27;9.73;;;2.55;;
57826;SDS011;43656;57.746;11.780;2023-04-21T06:51:53;14.55;;;2.80;;
57826;SDS011;43656;57.746;11.780;2023-04-21T06:54:18;17.67;;;2.80;;
57826;SDS011;43656;57.746;11.780;2023-04-21T06:56:43;11.98;;;3.13;;
57826;SDS011;43656;57.746;11.780;2023-04-21T06:59:09;9.65;;;2.40;;
57826;SDS011;43656;57.746;11.780;2023-04-21T07:01:35;9.70;;;2.47;;
57826;SDS011;43656;57.746;11.780;2023-04-21T07:04:00;7.28;;;2.70;;
57826;SDS011;43656;57.746;11.780;2023-04-21T07:06:25;12.75;;;2.70;;
57826;SDS011;43656;57.746;11.780;2023-04-21T07:08:51;9.65;;;2.65;;
57826;SDS011;43656;57.746;11.780;2023-04-21T07:11:16;7.55;;;2.83;;
57826;SDS011;43656;57.746;11.780;2023-04-21T07:13:42;8.48;;;2.47;;
57826;SDS011;43656;57.746;11.780;2023-04-21T07:16:07;9.25;;;3.08;;
57826;SDS011;43656;57.746;11.780;2023-04-21T07:18:32;9.50;;;2.80;;
57826;SDS011;43656;57.746;11.780;2023-04-21T07:20:59;6.72;;;2.70;;
57826;SDS011;43656;57.746;11.780;2023-04-21T07:23:24;7.53;;;2.67;;
57826;SDS011;43656;57.746;11.780;2023-04-21T07:25:50;4.45;;;2.80;;
57826;SDS011;43656;57.746;11.780;2023-04-21T07:28:15;11.70;;;2.78;;
57826;SDS011;43656;57.746;11.780;2023-04-21T07:30:41;6.53;;;2.72;;
57826;SDS011;43656;57.746;11.780;2023-04-21T07:33:07;6.20;;;2.60;;
57826;SDS011;43656;57.746;11.780;2023-04-21T07:35:33;10.02;;;2.75;;
57826;SDS011;43656;57.746;11.780;2023-04-21T07:37:58;7.15;;;2.75;;
57826;SDS011;43656;57.746;11.780;2023-04-21T07:40:24;7.15;;;2.65;;
57826;SDS011;43656;57.746;11.780;2023-04-21T07:42:49;7.95;;;2.90;;
57826;SDS011;43656;57.746;11.780;2023-04-21T07:45:15;10.20;;;3.00;;
57826;SDS011;43656;57.746;11.780;2023-04-21T07:47:40;11.90;;;3.47;;
57826;SDS011;43656;57.746;11.780;2023-04-21T07:50:06;7.90;;;2.90;;
57826;SDS011;43656;57.746;11.780;2023-04-21T07:52:32;7.05;;;3.03;;
57826;SDS011;43656;57.746;11.780;2023-04-21T07:54:57;10.63;;;2.90;;
57826;SDS011;43656;57.746;11.780;2023-04-21T07:57:23;12.98;;;3.38;;
57826;SDS011;43656;57.746;11.780;2023-04-21T07:59:49;10.25;;;3.40;;
57826;SDS011;43656;57.746;11.780;2023-04-21T08:02:14;15.80;;;3.58;;
57826;SDS011;43656;57.746;11.780;2023-04-21T08:04:40;13.98;;;3.90;;
57826;SDS011;43656;57.746;11.780;2023-04-21T08:07:05;10.43;;;3.35;;
57826;SDS011;43656;57.746;11.780;2023-04-21T08:09:31;16.98;;;3.67;;
57826;SDS011;43656;57.746;11.780;2023-04-21T08:11:56;16.40;;;4.40;;
57826;SDS011;43656;57.746;11.780;2023-04-21T08:14:22;11.35;;;3.47;;
57826;SDS011;43656;57.746;11.780;2023-04-21T08:16:47;6.47;;;2.90;;
57826;SDS011;43656;57.746;11.780;2023-04-21T08:19:13;7.97;;;3.15;;
57826;SDS011;43656;57.746;11.780;2023-04-21T08:21:38;11.13;;;3.10;;
57826;SDS011;43656;57.746;11.780;2023-04-21T08:24:04;10.32;;;3.20;;
57826;SDS011;43656;57.746;11.780;2023-04-21T08:26:31;11.02;;;2.80;;
57826;SDS011;43656;57.746;11.780;2023-04-21T08:28:58;8.93;;;2.95;;
57826;SDS011;43656;57.746;11.780;2023-04-21T08:31:24;7.40;;;2.95;;
57826;SDS011;43656;57.746;11.780;2023-04-21T08:33:50;6.60;;;3.17;;
57826;SDS011;43656;57.746;11.780;2023-04-21T08:36:15;6.05;;;2.92;;
57826;SDS011;43656;57.746;11.780;2023-04-21T08:38:43;9.10;;;2.88;;
57826;SDS011;43656;57.746;11.780;2023-04-21T08:41:09;7.70;;;2.88;;
57826;SDS011;43656;57.746;11.780;2023-04-21T08:43:35;4.47;;;2.80;;
57826;SDS011;43656;57.746;11.780;2023-04-21T08:46:05;6.18;;;3.08;;
57826;SDS011;43656;57.746;11.780;2023-04-21T08:48:34;10.32;;;2.60;;
57826;SDS011;43656;57.746;11.780;2023-04-21T08:51:00;6.10;;;2.97;;
57826;SDS011;43656;57.746;11.780;2023-04-21T08:53:26;7.50;;;2.50;;
57826;SDS011;43656;57.746;11.780;2023-04-21T08:55:52;7.80;;;2.95;;
57826;SDS011;43656;57.746;11.780;2023-04-21T08:58:19;5.95;;;2.67;;
57826;SDS011;43656;57.746;11.780;2023-04-21T09:00:47;6.22;;;2.80;;
57826;SDS011;43656;57.746;11.780;2023-04-21T09:03:12;9.10;;;3.00;;
57826;SDS011;43656;57.746;11.780;2023-04-21T09:05:45;6.90;;;2.58;;
57826;SDS011;43656;57.746;11.780;2023-04-21T09:08:21;7.88;;;2.78;;
57826;SDS011;43656;57.746;11.780;2023-04-21T09:10:48;6.60;;;2.60;;
57826;SDS011;43656;57.746;11.780;2023-04-21T09:13:15;4.45;;;2.90;;
57826;SDS011;43656;57.746;11.780;2023-04-21T09:15:44;6.25;;;2.70;;
57826;SDS011;43656;57.746;11.780;2023-04-21T09:18:16;5.97;;;3.08;;
57826;SDS011;43656;57.746;11.780;2023-04-21T09:20:43;6.28;;;2.70;;
57826;SDS011;43656;57.746;11.780;2023-04-21T09:23:10;9.02;;;2.70;;
57826;SDS011;43656;57.746;11.780;2023-04-21T09:25:39;5.50;;;2.67;;
57826;SDS011;43656;57.746;11.780;2023-04-21T09:28:10;4.53;;;2.60;;
57826;SDS011;43656;57.746;11.780;2023-04-21T09:30:36;5.88;;;2.40;;
57826;SDS011;43656;57.746;11.780;2023-04-21T09:33:06;6.22;;;2.60;;
57826;SDS011;43656;57.746;11.780;2023-04-21T09:35:35;4.45;;;2.40;;
57826;SDS011;43656;57.746;11.780;2023-04-21T09:38:03;4.93;;;2.63;;
57826;SDS011;43656;57.746;11.780;2023-04-21T09:40:34;3.92;;;2.40;;
57826;SDS011;43656;57.746;11.780;2023-04-21T09:43:00;6.95;;;2.97;;
57826;SDS011;43656;57.746;11.780;2023-04-21T09:45:26;4.45;;;2.55;;
57826;SDS011;43656;57.746;11.780;2023-04-21T09:47:54;6.07;;;2.60;;
57826;SDS011;43656;57.746;11.780;2023-04-21T09:50:22;4.25;;;2.40;;
57826;SDS011;43656;57.746;11.780;2023-04-21T09:52:52;5.25;;;2.70;;
57826;SDS011;43656;57.746;11.780;2023-04-21T09:55:28;5.22;;;2.83;;
57826;SDS011;43656;57.746;11.780;2023-04-21T09:57:56;4.03;;;2.58;;
57826;SDS011;43656;57.746;11.780;2023-04-21T10:00:24;4.85;;;2.35;;
57826;SDS011;43656;57.746;11.780;2023-04-21T10:02:56;5.93;;;2.80;;
57826;SDS011;43656;57.746;11.780;2023-04-21T10:05:22;4.45;;;2.63;;
57826;SDS011;43656;57.746;11.780;2023-04-21T10:07:48;5.68;;;3.03;;
57826;SDS011;43656;57.746;11.780;2023-04-21T10:10:25;6.15;;;2.65;;
57826;SDS011;43656;57.746;11.780;2023-04-21T10:12:52;5.28;;;2.80;;
57826;SDS011;43656;57.746;11.780;2023-04-21T10:15:51;5.03;;;2.83;;
57826;SDS011;43656;57.746;11.780;2023-04-21T10:18:14;4.00;;;2.75;;
57826;SDS011;43656;57.746;11.780;2023-04-21T10:20:57;6.72;;;3.20;;
57826;SDS011;43656;57.746;11.780;2023-04-21T10:26:08;6.07;;;3.05;;
57826;SDS011;43656;57.746;11.780;2023-04-21T10:28:53;3.65;;;2.92;;
57826;SDS011;43656;57.746;11.780;2023-04-21T10:31:20;6.18;;;3.38;;
57826;SDS011;43656;57.746;11.780;2023-04-21T10:36:30;6.22;;;3.45;;
57826;SDS011;43656;57.746;11.780;2023-04-21T10:38:59;4.38;;;2.97;;
57826;SDS011;43656;57.746;11.780;2023-04-21T10:41:29;8.13;;;4.05;;
57826;SDS011;43656;57.746;11.780;2023-04-21T10:43:57;5.15;;;3.15;;
57826;SDS011;43656;57.746;11.780;2023-04-21T10:46:33;6.53;;;3.00;;
57826;SDS011;43656;57.746;11.780;2023-04-21T10:49:03;5.45;;;3.03;;
57826;SDS011;43656;57.746;11.780;2023-04-21T10:54:36;7.72;;;3.20;;
57826;SDS011;43656;57.746;11.780;2023-04-21T10:57:18;7.85;;;3.15;;
57826;SDS011;43656;57.746;11.780;2023-04-21T10:59:44;3.97;;;3.03;;
57826;SDS011;43656;57.746;11.780;2023-04-21T11:02:14;5.22;;;3.08;;
57826;SDS011;43656;57.746;11.780;2023-04-21T11:04:41;4.28;;;2.95;;
57826;SDS011;43656;57.746;11.780;2023-04-21T11:07:24;6.05;;;2.80;;
57826;SDS011;43656;57.746;11.780;2023-04-21T11:10:00;6.55;;;2.90;;
57826;SDS011;43656;57.746;11.780;2023-04-21T11:12:27;8.43;;;3.20;;
57826;SDS011;43656;57.746;11.780;2023-04-21T11:14:55;5.72;;;2.63;;
57826;SDS011;43656;57.746;11.780;2023-04-21T11:17:21;5.25;;;2.78;;
57826;SDS011;43656;57.746;11.780;2023-04-21T11:19:49;5.45;;;3.10;;
57826;SDS011;43656;57.746;11.780;2023-04-21T11:22:19;4.85;;;2.88;;
57826;SDS011;43656;57.746;11.780;2023-04-21T11:24:48;5.78;;;3.08;;
57826;SDS011;43656;57.746;11.780;2023-04-21T11:27:15;4.38;;;3.10;;
57826;SDS011;43656;57.746;11.780;2023-04-21T11:29:43;4.03;;;3.00;;
57826;SDS011;43656;57.746;11.780;2023-04-21T11:32:11;8.13;;;3.00;;
57826;SDS011;43656;57.746;11.780;2023-04-21T11:34:38;5.65;;;3.50;;
57826;SDS011;43656;57.746;11.780;2023-04-21T11:37:03;4.13;;;3.00;;
57826;SDS011;43656;57.746;11.780;2023-04-21T11:39:31;4.68;;;3.15;;
57826;SDS011;43656;57.746;11.780;2023-04-21T11:41:57;6.85;;;3.33;;
57826;SDS011;43656;57.746;11.780;2023-04-21T11:44:36;4.38;;;3.05;;
57826;SDS011;43656;57.746;11.780;2023-04-21T11:47:14;8.35;;;3.90;;
57826;SDS011;43656;57.746;11.780;2023-04-21T11:52:09;6.90;;;3.28;;
57826;SDS011;43656;57.746;11.780;2023-04-21T11:54:35;4.80;;;3.60;;
57826;SDS011;43656;57.746;11.780;2023-04-21T11:57:00;7.28;;;4.10;;
57826;SDS011;43656;57.746;11.780;2023-04-21T11:59:26;5.93;;;4.40;;
57826;SDS011;43656;57.746;11.780;2023-04-21T12:01:53;7.15;;;3.95;;
57826;SDS011;43656;57.746;11.780;2023-04-21T12:04:20;6.35;;;3.90;;
57826;SDS011;43656;57.746;11.780;2023-04-21T12:06:57;7.97;;;3.90;;
57826;SDS011;43656;57.746;11.780;2023-04-21T12:09:24;7.10;;;4.15;;
57826;SDS011;43656;57.746;11.780;2023-04-21T12:11:51;7.30;;;4.40;;
57826;SDS011;43656;57.746;11.780;2023-04-21T12:14:19;7.30;;;4.47;;
57826;SDS011;43656;57.746;11.780;2023-04-21T12:16:48;8.75;;;4.35;;
57826;SDS011;43656;57.746;11.780;2023-04-21T12:19:22;7.40;;;4.30;;
57826;SDS011;43656;57.746;11.780;2023-04-21T12:21:53;7.68;;;4.57;;
57826;SDS011;43656;57.746;11.780;2023-04-21T12:24:20;8.57;;;4.75;;
57826;SDS011;43656;57.746;11.780;2023-04-21T12:26:46;7.18;;;5.35;;
57826;SDS011;43656;57.746;11.780;2023-04-21T12:29:12;7.35;;;5.00;;
57826;SDS011;43656;57.746;11.780;2023-04-21T12:31:37;6.32;;;4.38;;
57826;SDS011;43656;57.746;11.780;2023-04-21T12:34:02;5.20;;;4.03;;
57826;SDS011;43656;57.746;11.780;2023-04-21T12:36:29;6.47;;;3.90;;
57826;SDS011;43656;57.746;11.780;2023-04-21T12:38:54;8.35;;;4.40;;
57826;SDS011;43656;57.746;11.780;2023-04-21T12:41:20;7.55;;;5.20;;
57826;SDS011;43656;57.746;11.780;2023-04-21T12:43:45;6.63;;;4.60;;
57826;SDS011;43656;57.746;11.780;2023-04-21T12:46:11;7.95;;;4.88;;
57826;SDS011;43656;57.746;11.780;2023-04-21T12:48:36;6.75;;;4.60;;
57826;SDS011;43656;57.746;11.780;2023-04-21T12:51:02;6.93;;;4.55;;
57826;SDS011;43656;57.746;11.780;2023-04-21T12:53:27;5.88;;;3.80;;
57826;SDS011;43656;57.746;11.780;2023-04-21T12:55:53;10.20;;;4.55;;
57826;SDS011;43656;57.746;11.780;2023-04-21T12:58:18;5.90;;;4.15;;
57826;SDS011;43656;57.746;11.780;2023-04-21T13:00:43;5.22;;;4.32;;
57826;SDS011;43656;57.746;11.780;2023-04-21T13:03:09;7.70;;;4.57;;
57826;SDS011;43656;57.746;11.780;2023-04-21T13:05:34;5.10;;;4.40;;
57826;SDS011;43656;57.746;11.780;2023-04-21T13:08:00;7.75;;;4.38;;
57826;SDS011;43656;57.746;11.780;2023-04-21T13:10:26;7.50;;;4.70;;
57826;SDS011;43656;57.746;11.780;2023-04-21T13:12:51;5.53;;;4.50;;
57826;SDS011;43656;57.746;11.780;2023-04-21T13:15:16;8.07;;;4.57;;
57826;SDS011;43656;57.746;11.780;2023-04-21T13:17:42;7.50;;;4.57;;
57826;SDS011;43656;57.746;11.780;2023-04-21T13:20:07;6.32;;;4.07;;
57826;SDS011;43656;57.746;11.780;2023-04-21T13:22:33;7.07;;;4.47;;
57826;SDS011;43656;57.746;11.780;2023-04-21T13:24:59;8.77;;;4.68;;
57826;SDS011;43656;57.746;11.780;2023-04-21T13:27:25;8.05;;;4.10;;
57826;SDS011;43656;57.746;11.780;2023-04-21T13:29:50;7.53;;;4.50;;
57826;SDS011;43656;57.746;11.780;2023-04-21T13:32:18;6.35;;;4.47;;
57826;SDS011;43656;57.746;11.780;2023-04-21T13:34:44;9.02;;;5.10;;
57826;SDS011;43656;57.746;11.780;2023-04-21T13:37:09;7.35;;;5.00;;
57826;SDS011;43656;57.746;11.780;2023-04-21T13:39:39;7.95;;;5.00;;
57826;SDS011;43656;57.746;11.780;2023-04-21T13:42:04;7.53;;;4.78;;
57826;SDS011;43656;57.746;11.780;2023-04-21T13:44:30;8.38;;;5.00;;
57826;SDS011;43656;57.746;11.780;2023-04-21T13:46:55;12.18;;;5.10;;
57826;SDS011;43656;57.746;11.780;2023-04-21T13:49:21;10.90;;;5.50;;
57826;SDS011;43656;57.746;11.780;2023-04-21T13:51:46;6.80;;;5.25;;
57826;SDS011;43656;57.746;11.780;2023-04-21T13:54:12;10.50;;;4.82;;
57826;SDS011;43656;57.746;11.780;2023-04-21T13:56:37;6.68;;;4.90;;
57826;SDS011;43656;57.746;11.780;2023-04-21T13:59:03;8.10;;;5.00;;
57826;SDS011;43656;57.746;11.780;2023-04-21T14:01:28;8.02;;;5.00;;
57826;SDS011;43656;57.746;11.780;2023-04-21T14:03:53;6.93;;;4.88;;
57826;SDS011;43656;57.746;11.780;2023-04-21T14:06:20;10.38;;;5.60;;
57826;SDS011;43656;57.746;11.780;2023-04-21T14:08:46;8.60;;;4.97;;
57826;SDS011;43656;57.746;11.780;2023-04-21T14:11:11;9.25;;;4.93;;
57826;SDS011;43656;57.746;11.780;2023-04-21T14:13:36;6.93;;;5.03;;
57826;SDS011;43656;57.746;11.780;2023-04-21T14:16:02;8.63;;;4.93;;
57826;SDS011;43656;57.746;11.780;2023-04-21T14:18:28;6.15;;;4.82;;
57826;SDS011;43656;57.746;11.780;2023-04-21T14:20:53;7.97;;;4.72;;
57826;SDS011;43656;57.746;11.780;2023-04-21T14:23:19;7.70;;;4.63;;
57826;SDS011;43656;57.746;11.780;2023-04-21T14:25:44;8.65;;;4.50;;
57826;SDS011;43656;57.746;11.780;2023-04-21T14:28:09;10.05;;;4.28;;
57826;SDS011;43656;57.746;11.780;2023-04-21T14:30:35;5.40;;;4.10;;
57826;SDS011;43656;57.746;11.780;2023-04-21T14:33:01;7.32;;;4.70;;
57826;SDS011;43656;57.746;11.780;2023-04-21T14:35:27;6.93;;;4.43;;
57826;SDS011;43656;57.746;11.780;2023-04-21T14:37:52;7.65;;;4.18;;
57826;SDS011;43656;57.746;11.780;2023-04-21T14:40:18;5.80;;;4.30;;